createdAt,value
2022-11-24T00:01:31.759Z,99317.22
2022-11-24T00:04:05.744Z,99319.09
2022-11-24T00:06:36.102Z,99319.00
2022-11-24T00:09:05.562Z,99332.50
2022-11-24T00:11:36.242Z,99322.19
2022-11-24T00:14:05.702Z,99316.66
2022-11-24T00:16:36.952Z,99327.19
2022-11-24T00:19:09.415Z,99326.25
2022-11-24T00:21:38.784Z,99332.03
2022-11-24T00:24:06.937Z,99337.03
2022-11-24T00:26:37.559Z,99338.06
2022-11-24T00:29:08.055Z,99339.13
2022-11-24T00:31:42.100Z,99341.13
2022-11-24T00:34:15.193Z,99344.34
2022-11-24T00:36:43.436Z,99342.34
2022-11-24T00:39:14.096Z,99348.91
2022-11-24T00:41:43.108Z,99351.16
2022-11-24T00:44:10.759Z,99346.69
2022-11-24T00:46:39.280Z,99344.03
2022-11-24T00:49:07.391Z,99348.06
2022-11-24T00:51:35.296Z,99344.72
2022-11-24T00:54:03.074Z,99355.56
2022-11-24T00:56:31.150Z,99349.34
2022-11-24T00:58:59.169Z,99355.91
2022-11-24T01:01:31.121Z,99365.31
2022-11-24T01:04:01.544Z,99363.22
2022-11-24T01:06:30.840Z,99358.94
2022-11-24T01:08:58.921Z,99358.09
2022-11-24T01:11:50.497Z,99364.19
2022-11-24T01:14:18.402Z,99358.72
2022-11-24T01:16:46.378Z,99362.16
2022-11-24T01:19:14.027Z,99364.63
2022-11-24T01:21:41.947Z,99369.84
2022-11-24T01:24:11.543Z,99360.78
2022-11-24T01:26:39.748Z,99360.78
2022-11-24T01:29:07.577Z,99365.78
2022-11-24T01:31:37.039Z,99370.56
2022-11-24T01:34:04.731Z,99379.00
2022-11-24T01:36:32.714Z,99379.00
2022-11-24T01:39:00.435Z,99368.34
2022-11-24T01:41:28.465Z,99371.22
2022-11-24T01:43:57.692Z,99364.56
2022-11-24T01:46:37.947Z,99375.47
2022-11-24T01:49:36.320Z,99369.22
2022-11-24T01:52:21.553Z,99370.91
2022-11-24T01:55:04.127Z,99368.69
2022-11-24T01:58:06.674Z,99368.34
2022-11-24T02:00:38.922Z,99374.31
2022-11-24T02:03:09.597Z,99367.19
2022-11-24T02:05:47.936Z,99374.06
2022-11-24T02:11:38.647Z,99366.34
2022-11-24T02:14:10.563Z,99370.19
2022-11-24T02:16:41.782Z,99386.41
2022-11-24T02:19:39.961Z,99377.78
2022-11-24T02:22:58.172Z,99376.72
2022-11-24T02:25:54.965Z,99390.34
2022-11-24T02:28:25.868Z,99377.91
2022-11-24T02:30:54.351Z,99392.56
2022-11-24T02:33:25.280Z,99381.13
2022-11-24T02:35:53.626Z,99385.81
2022-11-24T02:38:33.989Z,99383.38
2022-11-24T02:41:07.887Z,99389.41
2022-11-24T02:43:46.607Z,99383.56
2022-11-24T02:46:14.606Z,99380.22
2022-11-24T02:48:42.462Z,99404.13
2022-11-24T02:51:10.334Z,99396.91
2022-11-24T02:53:37.975Z,99402.22
2022-11-24T02:56:06.656Z,99390.00
2022-11-24T02:58:34.445Z,99383.66
2022-11-24T03:01:03.243Z,99386.97
2022-11-24T03:03:30.830Z,99387.81
2022-11-24T03:05:58.697Z,99395.34
2022-11-24T03:08:26.359Z,99387.38
2022-11-24T03:10:55.115Z,99392.28
2022-11-24T03:13:24.085Z,99391.84
2022-11-24T03:15:53.133Z,99394.00
2022-11-24T03:18:21.825Z,99390.03
2022-11-24T03:20:50.055Z,99393.78
2022-11-24T03:23:17.992Z,99391.13
2022-11-24T03:25:45.928Z,99393.22
2022-11-24T03:28:13.835Z,99398.00
2022-11-24T03:30:41.839Z,99399.16
2022-11-24T03:33:09.409Z,99395.38
2022-11-24T03:35:37.435Z,99394.47
2022-11-24T03:38:05.009Z,99396.94
2022-11-24T03:40:32.910Z,99395.03
2022-11-24T03:43:00.474Z,99390.47
2022-11-24T03:48:17.882Z,99389.31
2022-11-24T03:50:57.829Z,99399.97
2022-11-24T03:53:28.379Z,99400.75
2022-11-24T03:55:57.212Z,99406.72
2022-11-24T03:58:25.621Z,99410.34
2022-11-24T04:00:56.048Z,99419.59
2022-11-24T04:03:24.501Z,99412.41
2022-11-24T04:05:52.854Z,99412.94
2022-11-24T04:08:20.776Z,99420.34
2022-11-24T04:10:54.076Z,99420.28
2022-11-24T04:13:27.807Z,99424.63
2022-11-24T04:15:55.886Z,99424.63
2022-11-24T04:18:23.636Z,99421.88
2022-11-24T04:20:52.580Z,99425.03
2022-11-24T04:23:20.239Z,99445.16
2022-11-24T04:25:47.696Z,99438.75
2022-11-24T04:28:15.594Z,99445.69
2022-11-24T04:30:45.023Z,99447.47
2022-11-24T04:33:13.592Z,99450.06
2022-11-24T04:35:41.407Z,99448.00
2022-11-24T04:38:09.560Z,99450.13
2022-11-24T04:40:38.266Z,99455.38
2022-11-24T04:43:06.449Z,99462.00
2022-11-24T04:45:33.980Z,99448.09
2022-11-24T04:48:01.969Z,99462.00
2022-11-24T04:50:29.484Z,99471.44
2022-11-24T04:52:57.342Z,99464.97
2022-11-24T04:55:25.348Z,99474.84
2022-11-24T04:57:53.968Z,99469.41
2022-11-24T05:00:22.038Z,99481.06
2022-11-24T05:02:49.839Z,99475.75
2022-11-24T05:05:17.523Z,99479.78
2022-11-24T05:07:45.344Z,99485.03
2022-11-24T05:10:31.713Z,99482.25
2022-11-24T05:13:01.086Z,99489.13
2022-11-24T05:15:29.911Z,99493.53
2022-11-24T05:17:57.513Z,99496.66
2022-11-24T05:20:25.982Z,99496.22
2022-11-24T05:22:53.575Z,99498.66
2022-11-24T05:25:21.612Z,99495.00
2022-11-24T05:27:49.314Z,99501.16
2022-11-24T05:30:17.177Z,99509.69
2022-11-24T05:32:45.248Z,99513.69
2022-11-24T05:35:14.411Z,99511.69
2022-11-24T05:37:42.013Z,99505.13
2022-11-24T05:40:10.598Z,99514.31
2022-11-24T05:42:46.757Z,99520.03
2022-11-24T05:45:19.758Z,99518.44
2022-11-24T05:47:49.998Z,99515.97
2022-11-24T05:50:21.045Z,99541.59
2022-11-24T05:52:49.893Z,99522.69
2022-11-24T05:55:19.657Z,99530.22
2022-11-24T05:57:47.211Z,99538.75
2022-11-24T06:00:18.019Z,99534.53
2022-11-24T06:02:45.686Z,99544.72
2022-11-24T06:05:32.348Z,99539.03
2022-11-24T06:08:18.530Z,99540.31
2022-11-24T06:10:46.441Z,99555.66
2022-11-24T06:13:14.238Z,99546.28
2022-11-24T06:15:42.452Z,99557.72
2022-11-24T06:18:10.102Z,99558.31
2022-11-24T06:20:37.908Z,99563.72
2022-11-24T06:23:05.380Z,99576.38
2022-11-24T06:25:33.221Z,99570.59
2022-11-24T06:28:04.944Z,99574.03
2022-11-24T06:30:32.947Z,99574.38
2022-11-24T06:33:00.784Z,99581.13
2022-11-24T06:35:28.652Z,99583.00
2022-11-24T06:37:56.288Z,99581.75
2022-11-24T06:40:24.377Z,99581.25
2022-11-24T06:42:52.697Z,99589.69
2022-11-24T06:45:20.319Z,99596.13
2022-11-24T06:47:48.190Z,99597.63
2022-11-24T06:50:16.186Z,99610.09
2022-11-24T06:52:44.327Z,99607.88
2022-11-24T06:55:11.995Z,99600.34
2022-11-24T06:57:39.951Z,99610.53
2022-11-24T07:00:08.863Z,99619.84
2022-11-24T07:02:41.059Z,99619.31
2022-11-24T07:05:12.165Z,99629.38
2022-11-24T07:07:40.055Z,99622.97
2022-11-24T07:10:08.289Z,99631.53
2022-11-24T07:12:36.307Z,99637.63
2022-11-24T07:15:04.378Z,99635.03
2022-11-24T07:17:35.395Z,99637.56
2022-11-24T07:20:03.364Z,99637.19
2022-11-24T07:22:31.232Z,99637.19
2022-11-24T07:24:58.996Z,99643.38
2022-11-24T07:27:30.344Z,99639.84
2022-11-24T07:29:57.871Z,99645.50
2022-11-24T07:32:25.708Z,99649.41
2022-11-24T07:34:53.289Z,99659.13
2022-11-24T07:37:21.135Z,99637.63
2022-11-24T07:39:48.528Z,99655.81
2022-11-24T07:42:16.312Z,99651.44
2022-11-24T07:44:43.889Z,99654.53
2022-11-24T07:47:11.757Z,99660.78
2022-11-24T07:49:39.350Z,99658.38
2022-11-24T07:52:08.364Z,99665.06
2022-11-24T07:54:36.049Z,99653.22
2022-11-24T07:57:04.209Z,99664.00
2022-11-24T07:59:31.827Z,99674.84
2022-11-24T08:01:59.692Z,99696.41
2022-11-24T08:04:27.348Z,99681.06
2022-11-24T08:06:55.199Z,99670.59
2022-11-24T08:09:22.708Z,99677.22
2022-11-24T08:11:50.598Z,99686.59
2022-11-24T08:14:18.134Z,99686.25
2022-11-24T08:16:46.017Z,99674.84
2022-11-24T08:19:13.712Z,99680.28
2022-11-24T08:21:41.458Z,99693.13
2022-11-24T08:24:09.286Z,99691.78
2022-11-24T08:26:37.157Z,99715.25
2022-11-24T08:29:04.632Z,99712.13
2022-11-24T08:31:36.172Z,99702.03
2022-11-24T08:34:05.278Z,99702.69
2022-11-24T08:36:33.639Z,99714.69
2022-11-24T08:39:02.315Z,99715.38
2022-11-24T08:41:31.472Z,99713.06
2022-11-24T08:43:59.000Z,99705.72
2022-11-24T08:46:27.067Z,99718.22
2022-11-24T08:48:55.354Z,99727.56
2022-11-24T08:51:26.311Z,99723.16
2022-11-24T08:53:59.340Z,99717.84
2022-11-24T08:56:29.899Z,99727.16
2022-11-24T08:58:58.163Z,99719.16
2022-11-24T09:01:28.259Z,99726.53
2022-11-24T09:03:56.174Z,99719.00
2022-11-24T09:06:27.864Z,99736.00
2022-11-24T09:08:55.814Z,99728.88
2022-11-24T09:11:25.704Z,99740.94
2022-11-24T09:13:54.689Z,99722.88
2022-11-24T09:16:26.637Z,99718.88
2022-11-24T09:19:01.373Z,99717.28
2022-11-24T09:21:31.012Z,99718.38
2022-11-24T09:23:58.634Z,99731.19
2022-11-24T09:26:31.518Z,99729.28
2022-11-24T09:29:01.085Z,99725.59
2022-11-24T09:31:34.289Z,99722.78
2022-11-24T09:34:05.067Z,99727.59
2022-11-24T09:36:33.152Z,99718.63
2022-11-24T09:39:01.104Z,99726.69
2022-11-24T09:42:07.587Z,99742.50
2022-11-24T09:44:58.782Z,99728.97
2022-11-24T09:47:53.837Z,99722.53
2022-11-24T09:50:30.365Z,99721.25
2022-11-24T09:53:30.275Z,99721.25
2022-11-24T09:56:05.046Z,99720.56
2022-11-24T09:58:42.421Z,99732.41
2022-11-24T10:01:26.560Z,99732.03
2022-11-24T10:03:55.140Z,99733.47
2022-11-24T10:06:40.790Z,99741.59
2022-11-24T10:09:36.721Z,99731.25
2022-11-24T10:12:16.841Z,99741.50
2022-11-24T10:15:12.151Z,99733.31
2022-11-24T10:17:48.613Z,99717.31
2022-11-24T10:21:06.700Z,99724.63
2022-11-24T10:23:49.035Z,99724.75
2022-11-24T10:26:42.655Z,99731.66
2022-11-24T10:29:13.821Z,99734.38
2022-11-24T10:31:45.512Z,99733.59
2022-11-24T10:34:44.407Z,99731.44
2022-11-24T10:37:12.521Z,99718.06
2022-11-24T10:40:48.805Z,99721.66
2022-11-24T10:43:12.544Z,99731.72
2022-11-24T10:45:40.998Z,99729.31
2022-11-24T10:48:25.532Z,99725.66
2022-11-24T10:51:37.179Z,99733.31
2022-11-24T10:54:24.136Z,99737.09
2022-11-24T10:56:53.915Z,99738.53
2022-11-24T10:59:38.329Z,99750.25
2022-11-24T11:02:38.574Z,99735.47
2022-11-24T11:05:42.918Z,99727.09
2022-11-24T11:08:25.973Z,99736.50
2022-11-24T11:11:29.515Z,99738.59
2022-11-24T11:14:05.847Z,99741.41
2022-11-24T11:16:33.908Z,99735.75
2022-11-24T11:19:58.655Z,99741.22
2022-11-24T11:22:32.563Z,99741.78
2022-11-24T11:25:34.298Z,99740.38
2022-11-24T11:28:29.873Z,99749.13
2022-11-24T11:31:17.532Z,99739.44
2022-11-24T11:34:26.637Z,99752.19
2022-11-24T11:36:59.838Z,99744.66
2022-11-24T11:39:36.089Z,99749.47
2022-11-24T11:42:53.745Z,99747.91
2022-11-24T11:45:21.898Z,99744.94
2022-11-24T11:48:10.202Z,99755.97
2022-11-24T11:51:26.134Z,99758.56
2022-11-24T11:54:18.679Z,99747.25
2022-11-24T11:56:50.216Z,99761.16
2022-11-24T11:59:26.161Z,99757.41
2022-11-24T12:02:30.162Z,99750.38
2022-11-24T12:05:11.750Z,99749.63
2022-11-24T12:08:02.286Z,99755.03
2022-11-24T12:11:00.577Z,99784.84
2022-11-24T12:13:56.440Z,99752.78
2022-11-24T12:16:54.832Z,99757.31
2022-11-24T12:19:40.990Z,99755.34
2022-11-24T12:22:47.009Z,99765.81
2022-11-24T12:25:32.634Z,99768.81
2022-11-24T12:28:25.982Z,99768.72
2022-11-24T12:31:25.141Z,99764.75
2022-11-24T12:34:27.997Z,99785.09
2022-11-24T12:37:23.297Z,99794.78
2022-11-24T12:39:58.969Z,99793.91
2022-11-24T12:42:47.871Z,99771.41
2022-11-24T12:45:27.765Z,99783.78
2022-11-24T12:48:50.636Z,99799.25
2022-11-24T12:51:28.772Z,99781.44
2022-11-24T12:54:01.705Z,99777.00
2022-11-24T12:56:44.622Z,99784.34
2022-11-24T12:59:50.502Z,99786.34
2022-11-24T13:02:55.678Z,99780.56
2022-11-24T13:05:50.760Z,99785.56
2022-11-24T13:08:19.560Z,99788.47
2022-11-24T13:10:57.498Z,99789.66
2022-11-24T13:14:12.102Z,99784.56
2022-11-24T13:17:28.601Z,99788.09
2022-11-24T13:19:51.665Z,99785.44
2022-11-24T13:22:26.316Z,99790.34
2022-11-24T13:25:28.696Z,99789.34
2022-11-24T13:28:06.682Z,99800.84
2022-11-24T13:30:34.179Z,99789.81
2022-11-24T13:33:16.201Z,99802.81
2022-11-24T13:36:02.669Z,99803.72
2022-11-24T13:38:54.322Z,99795.16
2022-11-24T13:41:34.329Z,99801.06
2022-11-24T13:44:16.970Z,99808.09
2022-11-24T13:47:24.959Z,99797.16
2022-11-24T13:49:52.849Z,99809.72
2022-11-24T13:52:39.701Z,99816.22
2022-11-24T13:55:13.703Z,99813.53
2022-11-24T13:57:58.677Z,99815.88
2022-11-24T14:00:35.981Z,99817.88
2022-11-24T14:03:26.471Z,99816.88
2022-11-24T14:05:57.261Z,99830.81
2022-11-24T14:08:33.165Z,99832.03
2022-11-24T14:11:03.936Z,99833.72
2022-11-24T14:13:33.003Z,99831.81
2022-11-24T14:16:10.297Z,99840.94
2022-11-24T14:18:40.919Z,99844.91
2022-11-24T14:21:28.038Z,99851.56
2022-11-24T14:24:08.338Z,99860.13
2022-11-24T14:26:41.410Z,99861.88
2022-11-24T14:29:21.551Z,99861.09
2022-11-24T14:32:16.369Z,99849.78
2022-11-24T14:34:43.886Z,99840.28
2022-11-24T14:37:11.766Z,99844.97
2022-11-24T14:39:43.341Z,99838.09
2022-11-24T14:42:21.354Z,99848.22
2022-11-24T14:44:56.850Z,99834.88
2022-11-24T14:47:44.410Z,99846.91
2022-11-24T14:50:13.907Z,99854.16
2022-11-24T14:52:57.241Z,99851.50
2022-11-24T14:55:35.368Z,99850.84
2022-11-24T14:58:19.642Z,99851.50
2022-11-24T15:01:18.508Z,99857.84
2022-11-24T15:03:47.281Z,99856.63
2022-11-24T15:06:21.594Z,99860.94
2022-11-24T15:08:50.041Z,99863.28
2022-11-24T15:11:17.737Z,99862.75
2022-11-24T15:13:54.824Z,99862.00
2022-11-24T15:16:26.642Z,99867.84
2022-11-24T15:19:02.285Z,99859.28
2022-11-24T15:21:37.645Z,99871.50
2022-11-24T15:24:14.963Z,99873.72
2022-11-24T15:26:43.138Z,99868.63
2022-11-24T15:29:12.294Z,99870.44
2022-11-24T15:31:41.881Z,99876.22
2022-11-24T15:34:14.728Z,99870.25
2022-11-24T15:36:42.559Z,99881.78
2022-11-24T15:39:10.392Z,99878.56
2022-11-24T15:41:37.940Z,99879.66
2022-11-24T15:44:05.795Z,99882.34
2022-11-24T15:46:38.717Z,99877.69
2022-11-24T15:49:07.359Z,99887.03
2022-11-24T15:51:39.258Z,99890.69
2022-11-24T15:54:14.042Z,99896.13
2022-11-24T15:56:42.136Z,99896.22
2022-11-24T15:59:20.741Z,99892.03
2022-11-24T16:01:50.808Z,99886.69
2022-11-24T16:04:19.659Z,99888.00
2022-11-24T16:06:48.070Z,99895.25
2022-11-24T16:09:17.492Z,99899.03
2022-11-24T16:11:45.077Z,99902.16
2022-11-24T16:14:31.592Z,99910.50
2022-11-24T16:16:59.145Z,99902.38
2022-11-24T16:19:26.974Z,99913.06
2022-11-24T16:21:55.188Z,99918.84
2022-11-24T16:24:23.615Z,99924.84
2022-11-24T16:26:55.052Z,99920.16
2022-11-24T16:29:27.221Z,99921.75
2022-11-24T16:31:55.576Z,99921.63
2022-11-24T16:34:23.954Z,99917.59
2022-11-24T16:36:52.493Z,99921.22
2022-11-24T16:39:20.335Z,99928.47
2022-11-24T16:41:47.977Z,99920.47
2022-11-24T16:44:15.994Z,99921.34
2022-11-24T16:46:43.816Z,99916.22
2022-11-24T16:49:11.803Z,99913.91
2022-11-24T16:51:39.872Z,99932.03
2022-11-24T16:54:10.898Z,99926.56
2022-11-24T16:56:38.834Z,99923.00
2022-11-24T16:59:09.615Z,99921.03
2022-11-24T17:01:37.341Z,99928.38
2022-11-24T17:04:11.019Z,99926.31
2022-11-24T17:06:40.559Z,99933.75
2022-11-24T17:09:09.166Z,99937.81
2022-11-24T17:11:36.871Z,99945.59
2022-11-24T17:14:04.764Z,99942.69
2022-11-24T17:16:32.513Z,99935.91
2022-11-24T17:19:00.530Z,99947.06
2022-11-24T17:21:29.525Z,99952.94
2022-11-24T17:24:00.727Z,99967.06
2022-11-24T17:26:28.773Z,99941.78
2022-11-24T17:28:57.482Z,99942.13
2022-11-24T17:31:39.950Z,99933.16
2022-11-24T17:34:10.566Z,99936.69
2022-11-24T17:36:39.787Z,99942.41
2022-11-24T17:39:11.195Z,99939.06
2022-11-24T17:41:38.902Z,99949.31
2022-11-24T17:44:11.528Z,99954.09
2022-11-24T17:46:39.332Z,99947.19
2022-11-24T17:49:08.531Z,99954.09
2022-11-24T17:51:36.342Z,99952.16
2022-11-24T17:54:31.203Z,99950.44
2022-11-24T17:56:52.060Z,99949.69
2022-11-24T17:59:20.203Z,99961.69
2022-11-24T18:01:47.784Z,99953.81
2022-11-24T18:04:16.417Z,99961.63
2022-11-24T18:06:44.077Z,99964.31
2022-11-24T18:09:12.320Z,99963.72
2022-11-24T18:11:39.898Z,99956.63
2022-11-24T18:14:07.771Z,99961.97
2022-11-24T18:16:35.809Z,99963.06
2022-11-24T18:19:10.865Z,99965.31
2022-11-24T18:21:40.944Z,99966.59
2022-11-24T18:24:10.766Z,99966.16
2022-11-24T18:26:42.994Z,99973.25
2022-11-24T18:29:12.053Z,99980.78
2022-11-24T18:31:40.718Z,99989.28
2022-11-24T18:34:08.992Z,99997.63
2022-11-24T18:36:37.002Z,100005.03
2022-11-24T18:39:08.285Z,100003.88
2022-11-24T18:41:36.396Z,100017.84
2022-11-24T18:44:08.719Z,100013.28
2022-11-24T18:46:37.693Z,99999.03
2022-11-24T18:49:07.125Z,100005.16
2022-11-24T18:51:35.723Z,100001.06
2022-11-24T18:54:05.484Z,100007.69
2022-11-24T18:56:33.351Z,100004.28
2022-11-24T18:59:01.249Z,100012.13
2022-11-24T19:01:29.790Z,100019.19
2022-11-24T19:04:01.861Z,100017.63
2022-11-24T19:06:35.314Z,100012.44
2022-11-24T19:09:15.084Z,100027.81
2022-11-24T19:11:45.465Z,100014.63
2022-11-24T19:14:17.538Z,100029.53
2022-11-24T19:16:48.077Z,100027.00
2022-11-24T19:19:17.248Z,100019.63
2022-11-24T19:21:45.068Z,100023.38
2022-11-24T19:24:16.158Z,100030.09
2022-11-24T19:26:43.681Z,100035.06
2022-11-24T19:29:11.890Z,100021.44
2022-11-24T19:31:40.140Z,100024.28
2022-11-24T19:34:08.566Z,100038.25
2022-11-24T19:36:37.560Z,100033.94
2022-11-24T19:39:05.608Z,100041.63
2022-11-24T19:41:34.544Z,100048.38
2022-11-24T19:44:02.500Z,100050.53
2022-11-24T19:46:30.378Z,100052.25
2022-11-24T19:49:02.849Z,100058.44
2022-11-24T19:51:34.395Z,100059.47
2022-11-24T19:54:03.308Z,100063.88
2022-11-24T19:56:36.084Z,100069.84
2022-11-24T19:59:06.295Z,100063.75
2022-11-24T20:01:39.954Z,100066.72
2022-11-24T20:04:12.797Z,100070.22
2022-11-24T20:06:45.093Z,100066.31
2022-11-24T20:09:17.774Z,100080.44
2022-11-24T20:11:46.129Z,100075.56
2022-11-24T20:14:15.657Z,100073.22
2022-11-24T20:16:45.443Z,100083.56
2022-11-24T20:19:15.685Z,100089.69
2022-11-24T20:21:46.416Z,100090.16
2022-11-24T20:24:21.612Z,100085.47
2022-11-24T20:26:54.296Z,100092.22
2022-11-24T20:29:23.533Z,100090.19
2022-11-24T20:31:54.710Z,100093.97
2022-11-24T20:34:24.367Z,100097.53
2022-11-24T20:36:53.214Z,100103.19
2022-11-24T20:39:26.557Z,100095.63
2022-11-24T20:42:12.531Z,100093.16
2022-11-24T20:44:40.456Z,100093.78
2022-11-24T20:47:07.965Z,100096.78
2022-11-24T20:49:35.940Z,100093.19
2022-11-24T20:52:03.680Z,100094.88
2022-11-24T20:54:31.577Z,100089.41
2022-11-24T20:56:59.063Z,100095.84
2022-11-24T20:59:27.085Z,100101.97
2022-11-24T21:02:00.276Z,100106.34
2022-11-24T21:04:28.363Z,100096.00
2022-11-24T21:06:56.552Z,100098.97
2022-11-24T21:09:24.898Z,100094.25
2022-11-24T21:11:52.470Z,100108.38
2022-11-24T21:14:20.324Z,100107.09
2022-11-24T21:16:48.317Z,100108.94
2022-11-24T21:19:18.667Z,100102.19
2022-11-24T21:21:47.867Z,100113.16
2022-11-24T21:24:21.588Z,100113.78
2022-11-24T21:26:51.251Z,100124.59
2022-11-24T21:29:22.436Z,100118.63
2022-11-24T21:31:50.229Z,100127.22
2022-11-24T21:34:21.251Z,100113.41
2022-11-24T21:36:49.605Z,100123.47
2022-11-24T21:39:17.716Z,100127.88
2022-11-24T21:41:45.389Z,100135.41
2022-11-24T21:44:14.808Z,100136.19
2022-11-24T21:46:48.307Z,100132.56
2022-11-24T21:49:18.922Z,100135.25
2022-11-24T21:51:47.137Z,100138.84
2022-11-24T21:54:15.066Z,100144.00
2022-11-24T21:56:42.503Z,100146.06
2022-11-24T21:59:10.439Z,100136.63
2022-11-24T22:01:38.228Z,100152.53
2022-11-24T22:04:06.152Z,100152.19
2022-11-24T22:06:34.037Z,100145.09
2022-11-24T22:09:02.040Z,100153.69
2022-11-24T22:11:32.059Z,100157.34
2022-11-24T22:14:00.015Z,100155.16
2022-11-24T22:16:30.028Z,100152.34
2022-11-24T22:19:18.243Z,100162.53
2022-11-24T22:21:48.606Z,100168.81
2022-11-24T22:24:16.717Z,100174.94
2022-11-24T22:26:44.397Z,100178.06
2022-11-24T22:29:12.292Z,100183.41
2022-11-24T22:31:39.906Z,100185.94
2022-11-24T22:34:08.017Z,100183.00
2022-11-24T22:36:36.777Z,100185.06
2022-11-24T22:39:06.325Z,100187.28
2022-11-24T22:41:35.641Z,100194.53
2022-11-24T22:44:04.889Z,100192.78
2022-11-24T22:46:32.951Z,100190.84
2022-11-24T22:49:01.811Z,100197.44
2022-11-24T22:51:34.807Z,100197.13
2022-11-24T22:54:05.625Z,100190.41
2022-11-24T22:56:34.359Z,100191.03
2022-11-24T22:59:04.721Z,100198.88
2022-11-24T23:01:36.061Z,100198.25
2022-11-24T23:04:04.397Z,100192.25
2022-11-24T23:06:33.669Z,100196.31
2022-11-24T23:09:04.176Z,100202.72
2022-11-24T23:11:41.308Z,100202.06
2022-11-24T23:14:15.259Z,100204.41
2022-11-24T23:16:43.925Z,100208.03
2022-11-24T23:19:11.891Z,100207.69
2022-11-24T23:21:39.812Z,100205.81
2022-11-24T23:24:08.866Z,100204.38
2022-11-24T23:26:41.388Z,100204.72
2022-11-24T23:29:11.360Z,100209.25
2022-11-24T23:31:42.120Z,100202.50
2022-11-24T23:34:10.184Z,100203.50
2022-11-24T23:36:37.880Z,100206.34
2022-11-24T23:39:08.723Z,100212.47
2022-11-24T23:41:36.310Z,100209.47
2022-11-24T23:44:04.614Z,100217.78
2022-11-24T23:46:33.022Z,100217.44
2022-11-24T23:49:00.887Z,100205.22
2022-11-24T23:51:31.393Z,100214.03
2022-11-24T23:54:00.781Z,100204.78
2022-11-24T23:56:32.973Z,100215.31
2022-11-24T23:59:03.091Z,100206.22
